sensor_id;sensor_type;location;lat;lon;timestamp;temperature;humidity
4820;DHT22;2424;49.696;6.630;2022-12-10T00:02:58;1.30;99.90
4820;DHT22;2424;49.696;6.630;2022-12-10T00:08:20;1.30;99.90
4820;DHT22;2424;49.696;6.630;2022-12-10T00:13:43;1.30;99.90
4820;DHT22;2424;49.696;6.630;2022-12-10T00:19:07;1.30;99.90
4820;DHT22;2424;49.696;6.630;2022-12-10T00:24:29;1.30;99.90
4820;DHT22;2424;49.696;6.630;2022-12-10T00:29:51;1.20;99.90
4820;DHT22;2424;49.696;6.630;2022-12-10T00:35:14;1.20;99.90
4820;DHT22;2424;49.696;6.630;2022-12-10T00:40:36;1.20;99.90
4820;DHT22;2424;49.696;6.630;2022-12-10T00:45:58;1.20;99.90
4820;DHT22;2424;49.696;6.630;2022-12-10T00:51:23;1.20;99.90
4820;DHT22;2424;49.696;6.630;2022-12-10T00:56:45;1.20;99.90
4820;DHT22;2424;49.696;6.630;2022-12-10T01:02:08;1.20;99.90
4820;DHT22;2424;49.696;6.630;2022-12-10T01:07:31;1.20;99.90
4820;DHT22;2424;49.696;6.630;2022-12-10T01:12:53;1.20;99.90
4820;DHT22;2424;49.696;6.630;2022-12-10T01:18:15;1.10;99.90
4820;DHT22;2424;49.696;6.630;2022-12-10T01:23:39;1.10;99.90
4820;DHT22;2424;49.696;6.630;2022-12-10T01:29:03;1.10;99.90
4820;DHT22;2424;49.696;6.630;2022-12-10T01:34:25;1.10;99.90
4820;DHT22;2424;49.696;6.630;2022-12-10T01:39:49;1.10;99.90
4820;DHT22;2424;49.696;6.630;2022-12-10T01:45:12;1.10;99.90
4820;DHT22;2424;49.696;6.630;2022-12-10T01:50:34;1.10;99.90
4820;DHT22;2424;49.696;6.630;2022-12-10T01:55:57;1.10;99.90
4820;DHT22;2424;49.696;6.630;2022-12-10T02:01:26;1.10;99.90
4820;DHT22;2424;49.696;6.630;2022-12-10T02:06:54;1.10;99.90
4820;DHT22;2424;49.696;6.630;2022-12-10T02:12:23;1.10;99.90
4820;DHT22;2424;49.696;6.630;2022-12-10T02:17:49;1.10;99.90
4820;DHT22;2424;49.696;6.630;2022-12-10T02:23:16;1.10;99.90
4820;DHT22;2424;49.696;6.630;2022-12-10T02:28:46;1.10;99.90
4820;DHT22;2424;49.696;6.630;2022-12-10T02:34:11;1.10;99.90
4820;DHT22;2424;49.696;6.630;2022-12-10T02:39:37;1.10;99.90
4820;DHT22;2424;49.696;6.630;2022-12-10T02:45:00;1.10;99.90
4820;DHT22;2424;49.696;6.630;2022-12-10T02:50:24;1.00;99.90
4820;DHT22;2424;49.696;6.630;2022-12-10T02:56:07;1.00;99.90
4820;DHT22;2424;49.696;6.630;2022-12-10T03:01:38;1.00;99.90
4820;DHT22;2424;49.696;6.630;2022-12-10T03:07:10;1.00;99.90
4820;DHT22;2424;49.696;6.630;2022-12-10T03:12:37;1.00;99.90
4820;DHT22;2424;49.696;6.630;2022-12-10T03:18:02;1.00;99.90
4820;DHT22;2424;49.696;6.630;2022-12-10T03:23:26;1.00;99.90
4820;DHT22;2424;49.696;6.630;2022-12-10T03:28:54;1.00;99.90
4820;DHT22;2424;49.696;6.630;2022-12-10T03:34:17;0.90;99.90
4820;DHT22;2424;49.696;6.630;2022-12-10T03:39:42;0.80;99.90
4820;DHT22;2424;49.696;6.630;2022-12-10T03:45:06;0.70;99.90
4820;DHT22;2424;49.696;6.630;2022-12-10T03:50:28;0.60;99.90
4820;DHT22;2424;49.696;6.630;2022-12-10T03:55:51;0.60;99.90
4820;DHT22;2424;49.696;6.630;2022-12-10T04:01:13;0.60;99.90
4820;DHT22;2424;49.696;6.630;2022-12-10T04:06:37;0.70;99.90
4820;DHT22;2424;49.696;6.630;2022-12-10T04:12:01;0.60;99.90
4820;DHT22;2424;49.696;6.630;2022-12-10T04:17:22;0.60;99.90
4820;DHT22;2424;49.696;6.630;2022-12-10T04:22:44;0.60;99.90
4820;DHT22;2424;49.696;6.630;2022-12-10T04:28:25;0.60;99.90
4820;DHT22;2424;49.696;6.630;2022-12-10T04:33:47;0.50;99.90
4820;DHT22;2424;49.696;6.630;2022-12-10T04:39:09;0.60;99.90
4820;DHT22;2424;49.696;6.630;2022-12-10T04:44:34;0.60;99.90
4820;DHT22;2424;49.696;6.630;2022-12-10T04:49:56;0.50;99.90
4820;DHT22;2424;49.696;6.630;2022-12-10T04:55:18;0.50;99.90
4820;DHT22;2424;49.696;6.630;2022-12-10T05:00:41;0.40;99.90
4820;DHT22;2424;49.696;6.630;2022-12-10T05:06:04;0.40;99.90
4820;DHT22;2424;49.696;6.630;2022-12-10T05:11:28;0.30;99.90
4820;DHT22;2424;49.696;6.630;2022-12-10T05:16:52;0.30;99.90
4820;DHT22;2424;49.696;6.630;2022-12-10T05:22:14;0.30;99.90
4820;DHT22;2424;49.696;6.630;2022-12-10T05:27:53;0.40;99.90
4820;DHT22;2424;49.696;6.630;2022-12-10T05:33:16;0.40;99.90
4820;DHT22;2424;49.696;6.630;2022-12-10T05:38:40;0.40;99.90
4820;DHT22;2424;49.696;6.630;2022-12-10T05:44:02;0.30;99.90
4820;DHT22;2424;49.696;6.630;2022-12-10T05:49:26;0.40;99.90
4820;DHT22;2424;49.696;6.630;2022-12-10T05:54:48;0.40;99.90
4820;DHT22;2424;49.696;6.630;2022-12-10T06:00:11;0.40;99.90
4820;DHT22;2424;49.696;6.630;2022-12-10T06:05:37;0.30;99.90
4820;DHT22;2424;49.696;6.630;2022-12-10T06:11:00;0.30;99.90
4820;DHT22;2424;49.696;6.630;2022-12-10T06:16:23;0.20;99.90
4820;DHT22;2424;49.696;6.630;2022-12-10T06:21:47;0.30;99.90
4820;DHT22;2424;49.696;6.630;2022-12-10T06:27:09;0.30;99.90
4820;DHT22;2424;49.696;6.630;2022-12-10T06:32:31;0.20;99.90
4820;DHT22;2424;49.696;6.630;2022-12-10T06:37:54;0.20;99.90
4820;DHT22;2424;49.696;6.630;2022-12-10T06:43:16;0.20;99.90
4820;DHT22;2424;49.696;6.630;2022-12-10T06:48:38;0.20;99.90
4820;DHT22;2424;49.696;6.630;2022-12-10T06:54:02;0.20;99.90
4820;DHT22;2424;49.696;6.630;2022-12-10T06:59:24;0.20;99.90
4820;DHT22;2424;49.696;6.630;2022-12-10T07:04:46;0.20;99.90
4820;DHT22;2424;49.696;6.630;2022-12-10T07:10:09;0.20;99.90
4820;DHT22;2424;49.696;6.630;2022-12-10T07:15:31;0.20;99.90
4820;DHT22;2424;49.696;6.630;2022-12-10T07:20:53;0.20;99.90
4820;DHT22;2424;49.696;6.630;2022-12-10T07:26:16;0.20;99.90
4820;DHT22;2424;49.696;6.630;2022-12-10T07:31:39;0.20;99.90
4820;DHT22;2424;49.696;6.630;2022-12-10T07:37:01;0.20;99.90
4820;DHT22;2424;49.696;6.630;2022-12-10T07:42:24;0.20;99.90
4820;DHT22;2424;49.696;6.630;2022-12-10T07:47:46;0.20;99.90
4820;DHT22;2424;49.696;6.630;2022-12-10T07:53:08;0.20;99.90
4820;DHT22;2424;49.696;6.630;2022-12-10T07:58:31;0.10;99.90
4820;DHT22;2424;49.696;6.630;2022-12-10T08:03:55;0.20;99.90
4820;DHT22;2424;49.696;6.630;2022-12-10T08:09:18;0.10;99.90
4820;DHT22;2424;49.696;6.630;2022-12-10T08:14:41;0.20;99.90
4820;DHT22;2424;49.696;6.630;2022-12-10T08:20:03;0.10;99.90
4820;DHT22;2424;49.696;6.630;2022-12-10T08:25:25;0.10;99.90
4820;DHT22;2424;49.696;6.630;2022-12-10T08:30:49;0.00;99.90
4820;DHT22;2424;49.696;6.630;2022-12-10T08:36:12;0.00;99.90
4820;DHT22;2424;49.696;6.630;2022-12-10T08:41:34;0.10;99.90
4820;DHT22;2424;49.696;6.630;2022-12-10T08:46:58;0.00;99.90
4820;DHT22;2424;49.696;6.630;2022-12-10T08:52:19;0.00;99.90
4820;DHT22;2424;49.696;6.630;2022-12-10T08:57:41;0.00;99.90
4820;DHT22;2424;49.696;6.630;2022-12-10T09:03:05;0.10;99.90
4820;DHT22;2424;49.696;6.630;2022-12-10T09:08:26;0.10;99.90
4820;DHT22;2424;49.696;6.630;2022-12-10T09:13:49;0.20;99.90
4820;DHT22;2424;49.696;6.630;2022-12-10T09:19:12;0.20;99.90
4820;DHT22;2424;49.696;6.630;2022-12-10T09:24:34;0.30;99.90
4820;DHT22;2424;49.696;6.630;2022-12-10T09:29:56;0.30;99.90
4820;DHT22;2424;49.696;6.630;2022-12-10T09:35:19;0.40;99.90
4820;DHT22;2424;49.696;6.630;2022-12-10T09:40:46;0.30;99.90
4820;DHT22;2424;49.696;6.630;2022-12-10T09:46:15;0.30;99.90
4820;DHT22;2424;49.696;6.630;2022-12-10T09:51:41;0.40;99.90
4820;DHT22;2424;49.696;6.630;2022-12-10T09:57:05;0.40;99.90
4820;DHT22;2424;49.696;6.630;2022-12-10T10:02:29;0.40;99.90
4820;DHT22;2424;49.696;6.630;2022-12-10T10:07:55;0.40;99.90
4820;DHT22;2424;49.696;6.630;2022-12-10T10:13:26;0.40;99.90
4820;DHT22;2424;49.696;6.630;2022-12-10T10:18:55;0.30;99.90
4820;DHT22;2424;49.696;6.630;2022-12-10T10:24:21;0.30;99.90
4820;DHT22;2424;49.696;6.630;2022-12-10T10:29:44;0.40;99.90
4820;DHT22;2424;49.696;6.630;2022-12-10T10:35:09;0.50;99.90
4820;DHT22;2424;49.696;6.630;2022-12-10T10:40:43;0.50;99.90
4820;DHT22;2424;49.696;6.630;2022-12-10T10:46:11;0.60;99.90
4820;DHT22;2424;49.696;6.630;2022-12-10T10:51:42;0.70;99.90
4820;DHT22;2424;49.696;6.630;2022-12-10T10:57:23;0.80;99.90
4820;DHT22;2424;49.696;6.630;2022-12-10T11:02:46;0.80;99.90
4820;DHT22;2424;49.696;6.630;2022-12-10T11:08:13;0.80;99.90
4820;DHT22;2424;49.696;6.630;2022-12-10T11:13:39;0.60;99.90
4820;DHT22;2424;49.696;6.630;2022-12-10T11:19:02;0.80;99.90
4820;DHT22;2424;49.696;6.630;2022-12-10T11:24:25;0.90;99.90
4820;DHT22;2424;49.696;6.630;2022-12-10T11:29:55;1.00;99.90
4820;DHT22;2424;49.696;6.630;2022-12-10T11:35:27;1.00;99.90
4820;DHT22;2424;49.696;6.630;2022-12-10T11:40:58;1.00;99.90
4820;DHT22;2424;49.696;6.630;2022-12-10T11:46:39;1.30;99.90
4820;DHT22;2424;49.696;6.630;2022-12-10T11:52:14;1.30;99.90
4820;DHT22;2424;49.696;6.630;2022-12-10T11:57:45;1.40;99.90
4820;DHT22;2424;49.696;6.630;2022-12-10T12:08:48;1.60;99.90
4820;DHT22;2424;49.696;6.630;2022-12-10T12:14:19;1.60;99.90
4820;DHT22;2424;49.696;6.630;2022-12-10T12:19:45;1.50;99.90
4820;DHT22;2424;49.696;6.630;2022-12-10T12:25:24;3.70;99.90
4820;DHT22;2424;49.696;6.630;2022-12-10T12:37:07;4.70;99.90
4820;DHT22;2424;49.696;6.630;2022-12-10T12:42:37;5.30;99.90
4820;DHT22;2424;49.696;6.630;2022-12-10T12:48:05;5.00;99.90
4820;DHT22;2424;49.696;6.630;2022-12-10T12:53:31;4.80;99.90
4820;DHT22;2424;49.696;6.630;2022-12-10T12:59:03;5.00;99.90
4820;DHT22;2424;49.696;6.630;2022-12-10T13:04:27;5.80;99.90
4820;DHT22;2424;49.696;6.630;2022-12-10T13:09:51;6.00;99.90
4820;DHT22;2424;49.696;6.630;2022-12-10T13:15:19;5.80;99.90
4820;DHT22;2424;49.696;6.630;2022-12-10T13:20:44;6.00;99.90
4820;DHT22;2424;49.696;6.630;2022-12-10T13:26:22;5.70;99.90
4820;DHT22;2424;49.696;6.630;2022-12-10T13:31:55;6.30;99.90
4820;DHT22;2424;49.696;6.630;2022-12-10T13:37:27;6.40;99.90
4820;DHT22;2424;49.696;6.630;2022-12-10T13:42:57;6.10;99.90
4820;DHT22;2424;49.696;6.630;2022-12-10T13:48:53;5.70;99.90
4820;DHT22;2424;49.696;6.630;2022-12-10T14:00:31;5.60;99.90
4820;DHT22;2424;49.696;6.630;2022-12-10T14:06:09;5.60;99.90
4820;DHT22;2424;49.696;6.630;2022-12-10T14:11:36;5.40;99.90
4820;DHT22;2424;49.696;6.630;2022-12-10T14:17:00;5.00;99.90
4820;DHT22;2424;49.696;6.630;2022-12-10T14:22:30;5.20;99.90
4820;DHT22;2424;49.696;6.630;2022-12-10T14:27:53;5.00;99.90
4820;DHT22;2424;49.696;6.630;2022-12-10T14:33:19;4.90;99.90
4820;DHT22;2424;49.696;6.630;2022-12-10T14:38:45;5.20;99.90
4820;DHT22;2424;49.696;6.630;2022-12-10T14:44:12;4.40;99.90
4820;DHT22;2424;49.696;6.630;2022-12-10T14:49:38;4.40;99.90
4820;DHT22;2424;49.696;6.630;2022-12-10T14:55:04;4.00;99.90
4820;DHT22;2424;49.696;6.630;2022-12-10T15:00:26;4.00;99.90
4820;DHT22;2424;49.696;6.630;2022-12-10T15:05:54;3.70;99.90
4820;DHT22;2424;49.696;6.630;2022-12-10T15:11:19;3.40;99.90
4820;DHT22;2424;49.696;6.630;2022-12-10T15:16:43;3.10;99.90
4820;DHT22;2424;49.696;6.630;2022-12-10T15:22:18;2.90;99.90
4820;DHT22;2424;49.696;6.630;2022-12-10T15:27:52;2.70;99.90
4820;DHT22;2424;49.696;6.630;2022-12-10T15:33:23;2.40;99.90
4820;DHT22;2424;49.696;6.630;2022-12-10T15:38:48;2.00;99.90
4820;DHT22;2424;49.696;6.630;2022-12-10T15:44:26;1.70;99.90
4820;DHT22;2424;49.696;6.630;2022-12-10T15:49:50;1.50;99.90
4820;DHT22;2424;49.696;6.630;2022-12-10T15:55:13;1.30;99.90
4820;DHT22;2424;49.696;6.630;2022-12-10T16:00:38;1.20;99.90
4820;DHT22;2424;49.696;6.630;2022-12-10T16:06:04;1.10;99.90
4820;DHT22;2424;49.696;6.630;2022-12-10T16:11:26;1.00;99.90
4820;DHT22;2424;49.696;6.630;2022-12-10T16:16:50;0.80;99.90
4820;DHT22;2424;49.696;6.630;2022-12-10T16:22:12;0.80;99.90
4820;DHT22;2424;49.696;6.630;2022-12-10T16:27:34;0.60;99.90
4820;DHT22;2424;49.696;6.630;2022-12-10T16:33:02;0.50;99.90
4820;DHT22;2424;49.696;6.630;2022-12-10T16:38:24;0.40;99.90
4820;DHT22;2424;49.696;6.630;2022-12-10T16:43:47;0.20;99.90
4820;DHT22;2424;49.696;6.630;2022-12-10T16:49:10;0.20;99.90
4820;DHT22;2424;49.696;6.630;2022-12-10T16:54:32;0.10;99.90
4820;DHT22;2424;49.696;6.630;2022-12-10T16:59:54;0.10;99.90
4820;DHT22;2424;49.696;6.630;2022-12-10T17:05:24;0.00;99.90
4820;DHT22;2424;49.696;6.630;2022-12-10T17:10:47;-0.20;99.90
4820;DHT22;2424;49.696;6.630;2022-12-10T17:16:27;-0.30;99.90
4820;DHT22;2424;49.696;6.630;2022-12-10T17:21:50;-0.30;99.90
4820;DHT22;2424;49.696;6.630;2022-12-10T17:27:15;-0.40;99.90
4820;DHT22;2424;49.696;6.630;2022-12-10T17:32:38;-0.40;99.90
4820;DHT22;2424;49.696;6.630;2022-12-10T17:38:01;-0.50;99.90
4820;DHT22;2424;49.696;6.630;2022-12-10T17:43:23;-0.50;99.90
4820;DHT22;2424;49.696;6.630;2022-12-10T17:48:45;-0.60;99.90
4820;DHT22;2424;49.696;6.630;2022-12-10T17:54:09;-0.70;99.90
4820;DHT22;2424;49.696;6.630;2022-12-10T17:59:30;-0.70;99.90
4820;DHT22;2424;49.696;6.630;2022-12-10T18:04:52;-0.80;99.90
4820;DHT22;2424;49.696;6.630;2022-12-10T18:10:18;-0.80;99.90
4820;DHT22;2424;49.696;6.630;2022-12-10T18:15:41;-0.90;99.90
4820;DHT22;2424;49.696;6.630;2022-12-10T18:21:03;-1.00;99.90
4820;DHT22;2424;49.696;6.630;2022-12-10T18:26:27;-1.10;99.90
4820;DHT22;2424;49.696;6.630;2022-12-10T18:31:49;-1.10;99.90
4820;DHT22;2424;49.696;6.630;2022-12-10T18:37:11;-1.10;99.90
4820;DHT22;2424;49.696;6.630;2022-12-10T18:42:34;-1.20;99.90
4820;DHT22;2424;49.696;6.630;2022-12-10T18:47:56;-1.20;99.90
4820;DHT22;2424;49.696;6.630;2022-12-10T18:53:18;-1.30;99.90
4820;DHT22;2424;49.696;6.630;2022-12-10T18:58:42;-1.30;99.90
4820;DHT22;2424;49.696;6.630;2022-12-10T19:04:04;-1.30;99.90
4820;DHT22;2424;49.696;6.630;2022-12-10T19:09:26;-1.40;99.90
4820;DHT22;2424;49.696;6.630;2022-12-10T19:14:49;-1.50;99.90
4820;DHT22;2424;49.696;6.630;2022-12-10T19:20:13;-1.50;99.90
4820;DHT22;2424;49.696;6.630;2022-12-10T19:25:35;-1.60;99.90
4820;DHT22;2424;49.696;6.630;2022-12-10T19:30:59;-1.60;99.90
4820;DHT22;2424;49.696;6.630;2022-12-10T19:36:22;-1.60;99.90
4820;DHT22;2424;49.696;6.630;2022-12-10T19:41:45;-1.60;99.90
4820;DHT22;2424;49.696;6.630;2022-12-10T19:47:11;-1.60;99.90
4820;DHT22;2424;49.696;6.630;2022-12-10T19:52:36;-1.70;99.90
4820;DHT22;2424;49.696;6.630;2022-12-10T19:57:58;-1.80;99.90
4820;DHT22;2424;49.696;6.630;2022-12-10T20:03:21;-1.80;99.90
4820;DHT22;2424;49.696;6.630;2022-12-10T20:08:44;-1.80;99.90
4820;DHT22;2424;49.696;6.630;2022-12-10T20:14:06;-1.90;99.90
4820;DHT22;2424;49.696;6.630;2022-12-10T20:19:29;-2.00;99.90
4820;DHT22;2424;49.696;6.630;2022-12-10T20:24:51;-2.00;99.90
4820;DHT22;2424;49.696;6.630;2022-12-10T20:30:16;-2.00;99.90
4820;DHT22;2424;49.696;6.630;2022-12-10T20:35:40;-1.90;99.90
4820;DHT22;2424;49.696;6.630;2022-12-10T20:41:02;-1.90;99.90
4820;DHT22;2424;49.696;6.630;2022-12-10T20:46:27;-1.90;99.90
4820;DHT22;2424;49.696;6.630;2022-12-10T20:51:52;-1.90;99.90
4820;DHT22;2424;49.696;6.630;2022-12-10T20:57:14;-1.90;99.90
4820;DHT22;2424;49.696;6.630;2022-12-10T21:02:36;-1.90;99.90
4820;DHT22;2424;49.696;6.630;2022-12-10T21:07:59;-1.80;99.90
4820;DHT22;2424;49.696;6.630;2022-12-10T21:13:28;-1.70;99.90
4820;DHT22;2424;49.696;6.630;2022-12-10T21:18:51;-1.70;99.90
4820;DHT22;2424;49.696;6.630;2022-12-10T21:24:15;-1.70;99.90
4820;DHT22;2424;49.696;6.630;2022-12-10T21:29:37;-1.70;99.90
4820;DHT22;2424;49.696;6.630;2022-12-10T21:34:59;-1.70;99.90
4820;DHT22;2424;49.696;6.630;2022-12-10T21:40:22;-1.70;99.90
4820;DHT22;2424;49.696;6.630;2022-12-10T21:45:45;-1.70;99.90
4820;DHT22;2424;49.696;6.630;2022-12-10T21:51:09;-1.70;99.90
4820;DHT22;2424;49.696;6.630;2022-12-10T21:56:33;-1.70;99.90
4820;DHT22;2424;49.696;6.630;2022-12-10T22:01:55;-1.70;99.90
4820;DHT22;2424;49.696;6.630;2022-12-10T22:07:17;-1.70;99.90
4820;DHT22;2424;49.696;6.630;2022-12-10T22:12:40;-1.70;99.90
4820;DHT22;2424;49.696;6.630;2022-12-10T22:18:03;-1.70;99.90
4820;DHT22;2424;49.696;6.630;2022-12-10T22:23:27;-1.60;99.90
4820;DHT22;2424;49.696;6.630;2022-12-10T22:28:50;-1.60;99.90
4820;DHT22;2424;49.696;6.630;2022-12-10T22:34:12;-1.60;99.90
4820;DHT22;2424;49.696;6.630;2022-12-10T22:39:34;-1.60;99.90
4820;DHT22;2424;49.696;6.630;2022-12-10T22:44:58;-1.60;99.90
4820;DHT22;2424;49.696;6.630;2022-12-10T22:50:19;-1.50;99.90
4820;DHT22;2424;49.696;6.630;2022-12-10T22:55:41;-1.50;99.90
4820;DHT22;2424;49.696;6.630;2022-12-10T23:01:05;-1.50;99.90
4820;DHT22;2424;49.696;6.630;2022-12-10T23:06:27;-1.50;99.90
4820;DHT22;2424;49.696;6.630;2022-12-10T23:11:49;-1.40;99.90
4820;DHT22;2424;49.696;6.630;2022-12-10T23:17:26;-1.40;99.90
4820;DHT22;2424;49.696;6.630;2022-12-10T23:22:48;-1.40;99.90
4820;DHT22;2424;49.696;6.630;2022-12-10T23:28:10;-1.40;99.90
4820;DHT22;2424;49.696;6.630;2022-12-10T23:33:34;-1.40;99.90
4820;DHT22;2424;49.696;6.630;2022-12-10T23:38:56;-1.40;99.90
4820;DHT22;2424;49.696;6.630;2022-12-10T23:44:18;-1.40;99.90
4820;DHT22;2424;49.696;6.630;2022-12-10T23:49:41;-1.40;99.90
4820;DHT22;2424;49.696;6.630;2022-12-10T23:55:04;-1.40;99.90
